sensor_id;sensor_type;location;lat;lon;timestamp;pressure;altitude;pressure_sealevel;temperature;humidity
41306;BME280;27051;50.376;19.152;2022-12-29T11:41:13;97886.25;;;11.97;47.66
41306;BME280;27051;50.376;19.152;2022-12-29T11:43:43;97881.73;;;12.01;47.43
41306;BME280;27051;50.376;19.152;2022-12-29T11:46:19;97878.09;;;12.03;47.61
41306;BME280;27051;50.376;19.152;2022-12-29T11:48:56;97879.40;;;12.09;47.46
41306;BME280;27051;50.376;19.152;2022-12-29T11:51:26;97871.52;;;12.20;47.47
41306;BME280;27051;50.376;19.152;2022-12-29T11:53:59;97876.86;;;12.26;46.67
41306;BME280;27051;50.376;19.152;2022-12-29T11:56:33;97869.89;;;12.35;47.22
41306;BME280;27051;50.376;19.152;2022-12-29T12:01:54;97865.90;;;12.48;46.48
41306;BME280;27051;50.376;19.152;2022-12-29T12:04:30;97856.56;;;12.42;46.53
41306;BME280;27051;50.376;19.152;2022-12-29T12:07:24;97868.48;;;12.31;45.46
41306;BME280;27051;50.376;19.152;2022-12-29T12:09:58;97864.02;;;12.20;46.64
41306;BME280;27051;50.376;19.152;2022-12-29T12:15:04;97873.80;;;11.99;46.30
41306;BME280;27051;50.376;19.152;2022-12-29T12:17:47;97862.23;;;11.88;46.23
41306;BME280;27051;50.376;19.152;2022-12-29T12:20:22;97862.58;;;11.87;46.30
41306;BME280;27051;50.376;19.152;2022-12-29T12:25:56;97862.64;;;11.90;46.45
41306;BME280;27051;50.376;19.152;2022-12-29T12:34:36;97867.00;;;11.79;46.45
41306;BME280;27051;50.376;19.152;2022-12-29T12:37:15;97862.89;;;11.85;46.12
41306;BME280;27051;50.376;19.152;2022-12-29T12:54:29;97869.09;;;11.95;47.09
41306;BME280;27051;50.376;19.152;2022-12-29T12:57:18;97858.63;;;11.74;47.47
41306;BME280;27051;50.376;19.152;2022-12-29T13:00:03;97840.58;;;11.49;47.73
41306;BME280;27051;50.376;19.152;2022-12-29T13:19:23;97862.41;;;11.28;47.39
41306;BME280;27051;50.376;19.152;2022-12-29T13:22:12;97856.73;;;11.40;47.46
41306;BME280;27051;50.376;19.152;2022-12-29T13:28:12;97855.52;;;11.37;47.62
41306;BME280;27051;50.376;19.152;2022-12-29T13:30:46;97857.88;;;11.48;47.37
41306;BME280;27051;50.376;19.152;2022-12-29T13:33:40;97861.94;;;11.58;47.44
41306;BME280;27051;50.376;19.152;2022-12-29T13:36:34;97860.11;;;11.72;47.44
41306;BME280;27051;50.376;19.152;2022-12-29T13:39:19;97863.09;;;11.77;47.11
41306;BME280;27051;50.376;19.152;2022-12-29T13:41:51;97847.86;;;11.74;47.02
41306;BME280;27051;50.376;19.152;2022-12-29T13:44:27;97847.36;;;11.69;47.31
41306;BME280;27051;50.376;19.152;2022-12-29T13:46:57;97860.75;;;11.65;47.05
41306;BME280;27051;50.376;19.152;2022-12-29T13:49:27;97859.69;;;11.60;47.35
41306;BME280;27051;50.376;19.152;2022-12-29T13:51:57;97863.05;;;11.57;47.28
41306;BME280;27051;50.376;19.152;2022-12-29T14:00:25;97860.80;;;11.34;47.30
41306;BME280;27051;50.376;19.152;2022-12-29T14:03:20;97859.11;;;11.19;47.49
41306;BME280;27051;50.376;19.152;2022-12-29T14:05:35;97859.09;;;11.10;47.65
41306;BME280;27051;50.376;19.152;2022-12-29T14:08:12;97862.52;;;11.00;47.83
41306;BME280;27051;50.376;19.152;2022-12-29T14:10:50;97861.11;;;10.91;47.78
41306;BME280;27051;50.376;19.152;2022-12-29T14:13:20;97852.79;;;10.80;47.90
41306;BME280;27051;50.376;19.152;2022-12-29T14:15:54;97855.78;;;10.69;48.14
41306;BME280;27051;50.376;19.152;2022-12-29T14:18:24;97859.63;;;10.61;48.27
41306;BME280;27051;50.376;19.152;2022-12-29T14:23:39;97871.90;;;10.47;48.60
41306;BME280;27051;50.376;19.152;2022-12-29T14:31:59;97851.50;;;10.17;48.84
41306;BME280;27051;50.376;19.152;2022-12-29T14:34:28;97851.33;;;10.10;49.09
41306;BME280;27051;50.376;19.152;2022-12-29T14:36:58;97856.37;;;10.06;49.23
41306;BME280;27051;50.376;19.152;2022-12-29T14:39:41;97861.53;;;9.98;49.23
41306;BME280;27051;50.376;19.152;2022-12-29T14:44:53;97863.26;;;9.85;49.53
41306;BME280;27051;50.376;19.152;2022-12-29T14:47:40;97866.27;;;9.83;49.62
41306;BME280;27051;50.376;19.152;2022-12-29T14:52:52;97864.72;;;9.76;49.93
41306;BME280;27051;50.376;19.152;2022-12-29T14:55:46;97867.87;;;9.72;49.88
41306;BME280;27051;50.376;19.152;2022-12-29T15:01:00;97867.42;;;9.51;50.19
41306;BME280;27051;50.376;19.152;2022-12-29T15:03:43;97873.83;;;9.47;50.33
41306;BME280;27051;50.376;19.152;2022-12-29T15:06:13;97877.40;;;9.45;50.40
41306;BME280;27051;50.376;19.152;2022-12-29T15:08:54;97875.92;;;9.41;50.49
41306;BME280;27051;50.376;19.152;2022-12-29T15:11:24;97879.84;;;9.44;50.51
41306;BME280;27051;50.376;19.152;2022-12-29T15:13:53;97876.62;;;9.44;50.56
41306;BME280;27051;50.376;19.152;2022-12-29T15:16:26;97879.73;;;9.40;50.62
41306;BME280;27051;50.376;19.152;2022-12-29T15:18:57;97878.96;;;9.40;51.04
41306;BME280;27051;50.376;19.152;2022-12-29T15:21:30;97873.38;;;9.45;50.83
41306;BME280;27051;50.376;19.152;2022-12-29T15:23:59;97873.70;;;9.43;50.81
41306;BME280;27051;50.376;19.152;2022-12-29T15:26:41;97868.69;;;9.42;50.85
41306;BME280;27051;50.376;19.152;2022-12-29T15:29:36;97871.80;;;9.38;51.11
41306;BME280;27051;50.376;19.152;2022-12-29T15:32:20;97858.17;;;9.30;51.26
41306;BME280;27051;50.376;19.152;2022-12-29T15:34:51;97855.38;;;9.21;51.19
41306;BME280;27051;50.376;19.152;2022-12-29T15:37:28;97851.58;;;9.16;51.39
41306;BME280;27051;50.376;19.152;2022-12-29T15:40:00;97851.58;;;9.16;51.30
41306;BME280;27051;50.376;19.152;2022-12-29T15:45:21;97862.62;;;9.08;51.43
41306;BME280;27051;50.376;19.152;2022-12-29T15:47:53;97857.06;;;9.07;51.52
41306;BME280;27051;50.376;19.152;2022-12-29T15:50:32;97854.94;;;9.06;51.44
41306;BME280;27051;50.376;19.152;2022-12-29T15:53:01;97859.95;;;9.02;51.54
41306;BME280;27051;50.376;19.152;2022-12-29T15:55:34;97857.27;;;9.02;51.75
41306;BME280;27051;50.376;19.152;2022-12-29T15:58:05;97863.52;;;9.00;51.78
41306;BME280;27051;50.376;19.152;2022-12-29T16:00:35;97861.09;;;9.01;51.77
41306;BME280;27051;50.376;19.152;2022-12-29T16:03:03;97858.16;;;9.00;51.72
41306;BME280;27051;50.376;19.152;2022-12-29T16:05:35;97858.16;;;9.00;51.79
41306;BME280;27051;50.376;19.152;2022-12-29T16:08:30;97852.23;;;9.00;51.94
41306;BME280;27051;50.376;19.152;2022-12-29T16:13:53;97865.64;;;9.00;52.18
41306;BME280;27051;50.376;19.152;2022-12-29T16:16:35;97861.73;;;8.98;51.93
41306;BME280;27051;50.376;19.152;2022-12-29T16:18:58;97866.66;;;8.96;52.10
41306;BME280;27051;50.376;19.152;2022-12-29T16:21:32;97861.73;;;8.98;52.04
41306;BME280;27051;50.376;19.152;2022-12-29T16:24:02;97869.88;;;8.95;52.00
41306;BME280;27051;50.376;19.152;2022-12-29T16:26:33;97870.55;;;8.92;52.11
41306;BME280;27051;50.376;19.152;2022-12-29T16:29:01;97872.00;;;8.89;52.11
41306;BME280;27051;50.376;19.152;2022-12-29T16:31:49;97868.66;;;8.86;52.15
41306;BME280;27051;50.376;19.152;2022-12-29T16:34:25;97871.12;;;8.85;52.19
41306;BME280;27051;50.376;19.152;2022-12-29T16:37:02;97870.77;;;8.87;52.30
41306;BME280;27051;50.376;19.152;2022-12-29T16:39:33;97874.22;;;8.87;52.34
41306;BME280;27051;50.376;19.152;2022-12-29T16:50:35;97875.70;;;8.91;52.49
41306;BME280;27051;50.376;19.152;2022-12-29T16:53:05;97872.67;;;8.93;52.40
41306;BME280;27051;50.376;19.152;2022-12-29T16:55:35;97875.59;;;8.94;52.55
41306;BME280;27051;50.376;19.152;2022-12-29T16:58:01;97875.80;;;8.95;52.48
41306;BME280;27051;50.376;19.152;2022-12-29T17:00:31;97875.70;;;8.91;52.47
41306;BME280;27051;50.376;19.152;2022-12-29T17:03:01;97871.12;;;8.91;52.52
41306;BME280;27051;50.376;19.152;2022-12-29T17:05:29;97866.88;;;8.90;52.53
41306;BME280;27051;50.376;19.152;2022-12-29T17:07:56;97862.05;;;8.90;52.59
41306;BME280;27051;50.376;19.152;2022-12-29T17:10:23;97864.20;;;8.90;52.65
41306;BME280;27051;50.376;19.152;2022-12-29T17:12:49;97872.34;;;8.94;52.65
41306;BME280;27051;50.376;19.152;2022-12-29T17:15:26;97872.13;;;8.93;52.63
41306;BME280;27051;50.376;19.152;2022-12-29T17:17:55;97874.36;;;8.91;52.66
41306;BME280;27051;50.376;19.152;2022-12-29T17:20:27;97872.45;;;8.91;52.73
41306;BME280;27051;50.376;19.152;2022-12-29T17:22:56;97875.14;;;8.91;52.71
41306;BME280;27051;50.376;19.152;2022-12-29T17:25:32;97868.89;;;8.94;52.83
41306;BME280;27051;50.376;19.152;2022-12-29T17:28:13;97871.57;;;8.94;52.80
41306;BME280;27051;50.376;19.152;2022-12-29T17:30:51;97875.70;;;8.97;52.81
41306;BME280;27051;50.376;19.152;2022-12-29T17:33:19;97880.28;;;8.97;52.83
41306;BME280;27051;50.376;19.152;2022-12-29T17:35:46;97884.75;;;8.99;52.83
41306;BME280;27051;50.376;19.152;2022-12-29T17:38:22;97883.31;;;9.01;52.89
41306;BME280;27051;50.376;19.152;2022-12-29T17:40:51;97886.88;;;8.99;52.93
41306;BME280;27051;50.376;19.152;2022-12-29T17:43:17;97884.41;;;9.00;52.94
41306;BME280;27051;50.376;19.152;2022-12-29T17:45:48;97882.74;;;9.02;52.88
41306;BME280;27051;50.376;19.152;2022-12-29T17:48:22;97877.59;;;9.03;52.90
41306;BME280;27051;50.376;19.152;2022-12-29T17:50:51;97874.91;;;9.03;52.82
41306;BME280;27051;50.376;19.152;2022-12-29T17:53:21;97875.02;;;9.00;52.98
41306;BME280;27051;50.376;19.152;2022-12-29T17:55:50;97875.80;;;8.95;52.96
41306;BME280;27051;50.376;19.152;2022-12-29T17:58:25;97879.61;;;8.94;53.02
41306;BME280;27051;50.376;19.152;2022-12-29T18:00:58;97887.09;;;8.94;53.06
41306;BME280;27051;50.376;19.152;2022-12-29T18:03:29;97885.86;;;8.91;53.06
41306;BME280;27051;50.376;19.152;2022-12-29T18:05:59;97884.84;;;8.90;53.07
41306;BME280;27051;50.376;19.152;2022-12-29T18:08:36;97880.60;;;8.89;53.11
41306;BME280;27051;50.376;19.152;2022-12-29T18:11:23;97886.39;;;8.85;53.16
41306;BME280;27051;50.376;19.152;2022-12-29T18:13:48;97889.74;;;8.82;53.25
41306;BME280;27051;50.376;19.152;2022-12-29T18:16:18;97886.71;;;8.77;53.31
41306;BME280;27051;50.376;19.152;2022-12-29T18:18:49;97890.37;;;8.73;53.32
41306;BME280;27051;50.376;19.152;2022-12-29T18:21:20;97881.56;;;8.72;53.36
41306;BME280;27051;50.376;19.152;2022-12-29T18:23:51;97879.09;;;8.67;53.35
41306;BME280;27051;50.376;19.152;2022-12-29T18:26:21;97892.73;;;8.68;53.43
41306;BME280;27051;50.376;19.152;2022-12-29T18:28:49;97889.70;;;8.63;53.41
41306;BME280;27051;50.376;19.152;2022-12-29T18:31:27;97889.80;;;8.61;53.43
41306;BME280;27051;50.376;19.152;2022-12-29T18:33:56;97893.37;;;8.59;53.51
41306;BME280;27051;50.376;19.152;2022-12-29T18:36:24;97884.66;;;8.56;53.61
41306;BME280;27051;50.376;19.152;2022-12-29T18:38:51;97889.55;;;8.54;53.55
41306;BME280;27051;50.376;19.152;2022-12-29T18:41:20;97887.55;;;8.51;53.55
41306;BME280;27051;50.376;19.152;2022-12-29T18:43:49;97892.64;;;8.43;53.84
41306;BME280;27051;50.376;19.152;2022-12-29T18:46:16;97899.34;;;8.43;53.74
41306;BME280;27051;50.376;19.152;2022-12-29T18:48:43;97901.81;;;8.48;53.81
41306;BME280;27051;50.376;19.152;2022-12-29T18:51:22;97895.59;;;8.57;53.78
41306;BME280;27051;50.376;19.152;2022-12-29T18:53:47;97894.39;;;8.60;53.70
41306;BME280;27051;50.376;19.152;2022-12-29T18:56:14;97906.09;;;8.62;53.58
41306;BME280;27051;50.376;19.152;2022-12-29T18:58:41;97900.28;;;8.60;53.72
41306;BME280;27051;50.376;19.152;2022-12-29T19:01:21;97899.86;;;8.64;53.68
41306;BME280;27051;50.376;19.152;2022-12-29T19:03:46;97889.14;;;8.64;53.59
41306;BME280;27051;50.376;19.152;2022-12-29T19:06:13;97892.38;;;8.63;53.66
41306;BME280;27051;50.376;19.152;2022-12-29T19:08:40;97894.04;;;8.62;53.67
41306;BME280;27051;50.376;19.152;2022-12-29T19:11:07;97900.98;;;8.63;53.71
41306;BME280;27051;50.376;19.152;2022-12-29T19:13:33;97902.08;;;8.62;53.60
41306;BME280;27051;50.376;19.152;2022-12-29T19:16:00;97895.38;;;8.56;53.67
41306;BME280;27051;50.376;19.152;2022-12-29T19:18:27;97897.02;;;8.48;53.71
41306;BME280;27051;50.376;19.152;2022-12-29T19:20:55;97896.06;;;8.38;53.78
41306;BME280;27051;50.376;19.152;2022-12-29T19:23:24;97901.92;;;8.25;53.87
41306;BME280;27051;50.376;19.152;2022-12-29T19:25:54;97902.22;;;8.17;53.85
41306;BME280;27051;50.376;19.152;2022-12-29T19:28:23;97909.67;;;8.12;53.96
41306;BME280;27051;50.376;19.152;2022-12-29T19:30:52;97904.05;;;8.04;54.03
41306;BME280;27051;50.376;19.152;2022-12-29T19:33:20;97914.86;;;8.02;54.07
41306;BME280;27051;50.376;19.152;2022-12-29T19:35:48;97903.13;;;8.00;54.12
41306;BME280;27051;50.376;19.152;2022-12-29T19:38:16;97907.23;;;7.98;54.20
41306;BME280;27051;50.376;19.152;2022-12-29T19:40:47;97905.53;;;7.93;54.17
41306;BME280;27051;50.376;19.152;2022-12-29T19:43:16;97910.45;;;7.91;54.40
41306;BME280;27051;50.376;19.152;2022-12-29T19:45:44;97903.98;;;7.92;54.34
41306;BME280;27051;50.376;19.152;2022-12-29T19:48:16;97908.20;;;7.93;54.36
41306;BME280;27051;50.376;19.152;2022-12-29T19:50:44;97907.77;;;7.91;54.50
41306;BME280;27051;50.376;19.152;2022-12-29T19:53:12;97909.42;;;7.90;54.52
41306;BME280;27051;50.376;19.152;2022-12-29T19:55:43;97906.75;;;7.90;54.61
41306;BME280;27051;50.376;19.152;2022-12-29T19:58:11;97906.63;;;7.86;54.44
41306;BME280;27051;50.376;19.152;2022-12-29T20:00:43;97911.98;;;7.86;54.48
41306;BME280;27051;50.376;19.152;2022-12-29T20:03:08;97913.07;;;7.85;54.39
41306;BME280;27051;50.376;19.152;2022-12-29T20:05:37;97901.81;;;7.86;54.38
41306;BME280;27051;50.376;19.152;2022-12-29T20:08:04;97913.75;;;7.88;54.44
41306;BME280;27051;50.376;19.152;2022-12-29T20:10:30;97909.98;;;7.89;54.39
41306;BME280;27051;50.376;19.152;2022-12-29T20:12:57;97917.18;;;7.82;54.58
41306;BME280;27051;50.376;19.152;2022-12-29T20:15:24;97907.91;;;7.80;54.38
41306;BME280;27051;50.376;19.152;2022-12-29T20:17:51;97901.88;;;7.77;54.40
41306;BME280;27051;50.376;19.152;2022-12-29T20:20:17;97899.70;;;7.70;54.45
41306;BME280;27051;50.376;19.152;2022-12-29T20:22:44;97897.69;;;7.67;54.43
41306;BME280;27051;50.376;19.152;2022-12-29T20:25:10;97891.31;;;7.66;54.45
41306;BME280;27051;50.376;19.152;2022-12-29T20:27:37;97884.03;;;7.60;54.59
41306;BME280;27051;50.376;19.152;2022-12-29T20:30:04;97866.94;;;7.52;54.50
41306;BME280;27051;50.376;19.152;2022-12-29T20:32:32;97870.36;;;7.47;54.59
41306;BME280;27051;50.376;19.152;2022-12-29T20:34:58;97884.38;;;7.44;54.65
41306;BME280;27051;50.376;19.152;2022-12-29T20:37:25;97881.36;;;7.45;54.84
41306;BME280;27051;50.376;19.152;2022-12-29T20:39:52;97882.27;;;7.43;54.70
41306;BME280;27051;50.376;19.152;2022-12-29T20:42:18;97893.48;;;7.43;54.67
41306;BME280;27051;50.376;19.152;2022-12-29T20:44:45;97890.81;;;7.43;54.76
41306;BME280;27051;50.376;19.152;2022-12-29T20:47:12;97892.62;;;7.45;54.70
41306;BME280;27051;50.376;19.152;2022-12-29T20:49:38;97898.52;;;7.44;54.76
41306;BME280;27051;50.376;19.152;2022-12-29T20:52:05;97893.30;;;7.48;54.78
41306;BME280;27051;50.376;19.152;2022-12-29T20:54:32;97892.68;;;7.51;54.78
41306;BME280;27051;50.376;19.152;2022-12-29T20:56:59;97889.45;;;7.51;54.76
41306;BME280;27051;50.376;19.152;2022-12-29T20:59:25;97887.64;;;7.49;54.77
41306;BME280;27051;50.376;19.152;2022-12-29T21:01:52;97898.56;;;7.50;54.78
41306;BME280;27051;50.376;19.152;2022-12-29T21:04:19;97903.00;;;7.46;54.74
41306;BME280;27051;50.376;19.152;2022-12-29T21:06:46;97905.86;;;7.41;54.76
41306;BME280;27051;50.376;19.152;2022-12-29T21:09:13;97906.95;;;7.40;54.89
41306;BME280;27051;50.376;19.152;2022-12-29T21:11:40;97906.55;;;7.44;54.96
41306;BME280;27051;50.376;19.152;2022-12-29T21:14:06;97909.22;;;7.44;54.86
41306;BME280;27051;50.376;19.152;2022-12-29T21:16:33;97908.19;;;7.43;54.87
41306;BME280;27051;50.376;19.152;2022-12-29T21:19:00;97914.44;;;7.41;54.80
41306;BME280;27051;50.376;19.152;2022-12-29T21:21:27;97913.33;;;7.42;54.96
41306;BME280;27051;50.376;19.152;2022-12-29T21:23:54;97920.69;;;7.45;54.92
41306;BME280;27051;50.376;19.152;2022-12-29T21:26:22;97906.23;;;7.46;54.85
41306;BME280;27051;50.376;19.152;2022-12-29T21:28:50;97908.10;;;7.45;54.88
41306;BME280;27051;50.376;19.152;2022-12-29T21:31:33;97909.44;;;7.45;54.88
41306;BME280;27051;50.376;19.152;2022-12-29T21:34:03;97907.11;;;7.44;54.88
41306;BME280;27051;50.376;19.152;2022-12-29T21:36:31;97905.61;;;7.40;54.90
41306;BME280;27051;50.376;19.152;2022-12-29T21:38:59;97903.66;;;7.43;54.86
41306;BME280;27051;50.376;19.152;2022-12-29T21:41:25;97907.97;;;7.42;54.92
41306;BME280;27051;50.376;19.152;2022-12-29T21:43:52;97901.69;;;7.37;54.88
41306;BME280;27051;50.376;19.152;2022-12-29T21:46:21;97911.61;;;7.37;54.90
41306;BME280;27051;50.376;19.152;2022-12-29T21:48:48;97910.92;;;7.34;54.93
41306;BME280;27051;50.376;19.152;2022-12-29T21:51:15;97927.14;;;7.29;54.96
41306;BME280;27051;50.376;19.152;2022-12-29T21:53:43;97924.78;;;7.27;54.95
41306;BME280;27051;50.376;19.152;2022-12-29T21:56:13;97928.86;;;7.33;55.09
41306;BME280;27051;50.376;19.152;2022-12-29T21:58:45;97928.98;;;7.37;55.11
41306;BME280;27051;50.376;19.152;2022-12-29T22:01:13;97921.13;;;7.41;55.06
41306;BME280;27051;50.376;19.152;2022-12-29T22:03:40;97924.11;;;7.39;55.05
41306;BME280;27051;50.376;19.152;2022-12-29T22:06:10;97920.19;;;7.36;55.11
41306;BME280;27051;50.376;19.152;2022-12-29T22:08:37;97928.86;;;7.33;55.03
41306;BME280;27051;50.376;19.152;2022-12-29T22:11:06;97928.70;;;7.30;55.01
41306;BME280;27051;50.376;19.152;2022-12-29T22:13:36;97932.02;;;7.27;55.26
41306;BME280;27051;50.376;19.152;2022-12-29T22:16:09;97941.75;;;7.31;55.19
41306;BME280;27051;50.376;19.152;2022-12-29T22:18:39;97939.08;;;7.31;55.23
41306;BME280;27051;50.376;19.152;2022-12-29T22:21:08;97946.03;;;7.24;55.00
41306;BME280;27051;50.376;19.152;2022-12-29T22:23:36;97946.03;;;7.24;55.00
41306;BME280;27051;50.376;19.152;2022-12-29T22:26:04;97950.13;;;7.21;55.29
41306;BME280;27051;50.376;19.152;2022-12-29T22:28:37;97956.25;;;7.22;55.26
41306;BME280;27051;50.376;19.152;2022-12-29T22:31:06;97953.02;;;7.22;55.26
41306;BME280;27051;50.376;19.152;2022-12-29T22:33:35;97945.90;;;7.20;55.26
41306;BME280;27051;50.376;19.152;2022-12-29T22:36:02;97952.89;;;7.18;55.27
41306;BME280;27051;50.376;19.152;2022-12-29T22:38:29;97955.56;;;7.18;55.35
41306;BME280;27051;50.376;19.152;2022-12-29T22:40:59;97947.23;;;7.20;55.39
41306;BME280;27051;50.376;19.152;2022-12-29T22:43:25;97950.99;;;7.19;55.41
41306;BME280;27051;50.376;19.152;2022-12-29T22:45:52;97952.67;;;7.17;55.30
41306;BME280;27051;50.376;19.152;2022-12-29T22:48:19;97956.30;;;7.13;55.41
41306;BME280;27051;50.376;19.152;2022-12-29T22:50:45;97947.41;;;7.15;55.41
41306;BME280;27051;50.376;19.152;2022-12-29T22:53:12;97948.41;;;7.16;55.42
41306;BME280;27051;50.376;19.152;2022-12-29T22:55:38;97948.32;;;7.19;55.40
41306;BME280;27051;50.376;19.152;2022-12-29T22:58:05;97948.88;;;7.18;55.42
41306;BME280;27051;50.376;19.152;2022-12-29T23:00:32;97946.52;;;7.17;55.44
41306;BME280;27051;50.376;19.152;2022-12-29T23:02:58;97947.32;;;7.17;55.44
41306;BME280;27051;50.376;19.152;2022-12-29T23:05:25;97948.19;;;7.15;55.36
41306;BME280;27051;50.376;19.152;2022-12-29T23:07:52;97941.98;;;7.17;55.45
41306;BME280;27051;50.376;19.152;2022-12-29T23:10:19;97938.19;;;7.18;55.41
41306;BME280;27051;50.376;19.152;2022-12-29T23:12:45;97939.05;;;7.16;55.37
41306;BME280;27051;50.376;19.152;2022-12-29T23:15:12;97932.15;;;7.15;55.39
41306;BME280;27051;50.376;19.152;2022-12-29T23:17:40;97936.25;;;7.13;55.44
41306;BME280;27051;50.376;19.152;2022-12-29T23:20:07;97930.48;;;7.17;55.48
41306;BME280;27051;50.376;19.152;2022-12-29T23:22:34;97926.47;;;7.17;55.41
41306;BME280;27051;50.376;19.152;2022-12-29T23:25:01;97924.13;;;7.15;55.44
41306;BME280;27051;50.376;19.152;2022-12-29T23:27:27;97920.99;;;7.13;55.39
41306;BME280;27051;50.376;19.152;2022-12-29T23:29:54;97923.97;;;7.12;55.63
41306;BME280;27051;50.376;19.152;2022-12-29T23:32:21;97923.97;;;7.12;55.63
41306;BME280;27051;50.376;19.152;2022-12-29T23:34:48;97925.86;;;7.11;55.56
41306;BME280;27051;50.376;19.152;2022-12-29T23:37:14;97925.86;;;7.11;55.56
41306;BME280;27051;50.376;19.152;2022-12-29T23:39:41;97926.64;;;7.12;55.55
41306;BME280;27051;50.376;19.152;2022-12-29T23:42:08;97928.36;;;7.16;55.54
41306;BME280;27051;50.376;19.152;2022-12-29T23:44:34;97923.88;;;7.14;55.53
41306;BME280;27051;50.376;19.152;2022-12-29T23:47:01;97921.39;;;7.09;55.52
41306;BME280;27051;50.376;19.152;2022-12-29T23:49:34;97912.55;;;7.03;55.58
41306;BME280;27051;50.376;19.152;2022-12-29T23:52:01;97917.33;;;7.03;55.70
41306;BME280;27051;50.376;19.152;2022-12-29T23:54:28;97913.19;;;7.00;55.60
41306;BME280;27051;50.376;19.152;2022-12-29T23:56:55;97918.84;;;6.98;55.71
41306;BME280;27051;50.376;19.152;2022-12-29T23:59:21;97916.48;;;6.96;55.67
